• Join FlightAware (Why Join?)
  • Login
  • US Flag 
Rudolph Flight #1: Arrived! 
06:46PM EST


 

Airport Tracker/Info


-or-


 

Live Flight TrackerFlight Track Log ✈ ASQ5740 ✈ 14-Nov-2013 ✈ KGSP - KIAD

Flight Track Log - Related Links

Times and Time Zones

All times are in EST time to prevent confusion due to time zone crossing. See the ASQ5740 flight status page for this flight to view local times or setup timezone preferences in your user account.

Time Position Orientation Groundspeed Altitude Reporting Facility
EST Latitude Longitude Course Direction KTS MPH feet Rate Location/Type
03:02PM 34.8344 -82.2067 71° East 216 249 27,000  Level Atlanta Center
03:03PM 34.8794 -82.1397 51° Northeast 288 331 6,500 -9,000 Descending Atlanta Center
03:04PM 35.2185 -81.8651 North  Level Estimated
03:04PM 34.9325 -82.0625 50° Northeast 295 339 9,100  Level Atlanta Center
03:05PM 35.2991 -81.7762 80° East  Level Estimated
03:05PM 34.9958 -81.9825 46° Northeast 322 371 10,000  Level Atlanta Center
03:06PM 35.3796 -81.6871 71° East  Level Estimated
03:06PM 35.0847 -81.9319 25° Northeast 347 399 10,300  Level Atlanta Center
03:07PM 35.1933 -81.9394 357° North 347 399 12,500 2,640 Climbing Atlanta Center
03:08PM 35.2825 -81.9017 19° North 347 399 15,600 2,400 Climbing Atlanta Center
03:09PM 35.3286 -81.7961 62° Northeast 321 369 17,300 1,380 Climbing Atlanta Center
03:10PM 35.3744 -81.6878 63° Northeast 328 377 18,400 1,260 Climbing Atlanta Center
03:11PM 35.4203 -81.5717 64° Northeast 349 402 19,900 1,380 Climbing Atlanta Center
03:12PM 35.4681 -81.4608 62° Northeast 363 418 21,200 1,200 Climbing Atlanta Center
03:13PM 35.5156 -81.3392 64° Northeast 379 436 22,300 1,080 Climbing Atlanta Center
03:14PM 35.5603 -81.2050 68° East 401 461 23,400 1,140 Climbing Atlanta Center
03:15PM 35.6097 -81.0833 63° Northeast 406 467 24,600 1,020 Climbing Atlanta Center
03:16PM 35.6608 -80.9561 64° Northeast 406 467 25,500 900 Climbing Atlanta Center
03:17PM 35.7078 -80.8342 65° Northeast 399 459 26,400 720 Climbing Atlanta Center
03:18PM 35.7606 -80.7042 63° Northeast 404 465 27,000 300 Climbing Atlanta Center
03:19PM 35.8072 -80.5819 65° Northeast 414 476 27,000  Level Atlanta Center
03:20PM 35.8639 -80.4439 63° Northeast 433 498 27,000  Level Atlanta Center
03:22PM 35.9469 -80.2386 63° Northeast 438 504 27,000  Level Washington Center
03:23PM 36.0003 -80.1006 64° Northeast 438 504 27,000  Level Washington Center
03:23PM 36.0531 -79.9700 63° Northeast 433 498 27,000  Level Washington Center
03:25PM 36.1178 -79.8553 55° Northeast 418 481 27,000  Level Washington Center
03:26PM 36.1844 -79.7406 54° Northeast 414 476 27,000  Level Washington Center
03:27PM 36.2511 -79.6153 57° Northeast 403 464 27,000  Level Washington Center
03:28PM 36.3108 -79.5125 54° Northeast 403 464 27,000  Level Washington Center
03:28PM 36.3772 -79.3947 55° Northeast 398 458 27,000  Level Washington Center
03:30PM 36.4394 -79.2764 57° Northeast 398 458 27,000  Level Washington Center
03:31PM 36.4989 -79.1733 54° Northeast 398 458 27,000 -60 Level Washington Center
03:32PM 36.5694 -79.0497 55° Northeast 398 458 26,900 -660 Descending Washington Center
03:32PM 36.6375 -78.9283 55° Northeast 398 458 25,800 -1,020 Descending Washington Center
03:33PM 36.7056 -78.7992 57° Northeast 434 499 25,000 -420 Descending Washington Center
03:35PM 36.7736 -78.6750 56° Northeast 434 499 25,000  Level Washington Center
03:36PM 36.8414 -78.5506 56° Northeast 434 499 25,000  Level Washington Center
03:37PM 36.9089 -78.4336 54° Northeast 429 494 25,000  Level Washington Center
03:38PM 36.9656 -78.3267 56° Northeast 423 487 25,000  Level Washington Center
03:39PM 37.0372 -78.2094 53° Northeast 418 481 25,000  Level Washington Center
03:39PM 37.1431 -78.1297 31° Northeast 401 461 25,000 -60 Level Washington Center
03:40PM 37.2386 -78.0519 33° Northeast 401 461 24,900 -600 Descending Washington Center
03:42PM 37.3383 -77.9767 31° Northeast 407 468 23,900 -1,080 Descending Washington Center
03:43PM 37.4419 -77.8936 32° Northeast 426 490 22,800 -960 Descending Washington Center
03:44PM 37.5519 -77.8158 29° Northeast 438 504 22,000 -900 Descending Washington Center
03:44PM 37.6594 -77.7508 26° Northeast 438 504 21,100 -1,920 Descending Washington Center
03:46PM 37.7650 -77.6906 24° Northeast 433 498 18,200 -2,520 Descending Washington Center
03:47PM 37.8617 -77.6356 24° Northeast 407 468 16,000 -2,220 Descending Washington Center
03:47PM 37.9522 -77.5828 25° Northeast 382 440 13,800 -1,920 Descending Washington Center
03:49PM 38.0197 -77.5397 27° Northeast 355 409 12,200 -1,740 Descending Washington Center
03:50PM 38.1167 -77.4867 23° Northeast 325 374 10,400 -1,140 Descending Washington Center
03:51PM 38.1944 -77.4411 25° Northeast 312 359 10,000 -300 Descending Washington Center
03:52PM 38.2703 -77.3928 27° Northeast 307 353 9,800 -1,020 Descending Washington Center
03:52PM 38.3481 -77.3550 21° North 302 348 8,100 -1,440 Descending Washington Center
03:54PM 38.4250 -77.3594 357° North 286 329 7,000 -1,080 Descending Washington Center
03:55PM 38.5022 -77.3611 359° North 281 323 6,000 -960 Descending Washington Center
03:56PM 38.5792 -77.3683 356° North 270 311 5,100 -600 Descending Washington Center
03:57PM 38.6522 -77.3647 North 270 311 4,900 -120 Descending Washington Center
03:58PM 38.7294 -77.3614 North 270 311 4,900 -420 Level Washington Center
03:59PM 38.8333 -77.3500 North 264 304 4,000 -420 Descending Potomac TRACON
04:00PM 38.9000 -77.3500 360° North 265 305 4,000 -360 Level Potomac TRACON
04:02PM 39.0500 -77.3500 360° North 257 296 3,000 -360 Descending Potomac TRACON
04:03PM 39.1167 -77.3500 360° North 187 215 3,000 -300 Level Potomac TRACON
04:04PM 39.1333 -77.3833 303° West 182 209 2,400 -540 Descending Potomac TRACON
04:05PM 39.1000 -77.4167 218° Southwest 162 186 2,000 -300 Descending Potomac TRACON
04:06PM 39.0500 -77.4333 195° South 159 183 1,900 -300 Descending Potomac TRACON
04:07PM 39.0167 -77.4333 180° South 149 171 1,500 -600 Descending Potomac TRACON
04:08PM 38.9667 -77.4333 180° South 137 158 800 -720 Descending Potomac TRACON